createdAt,value
2023-04-30T00:00:45.376Z,100882.94
2023-04-30T00:03:13.286Z,100887.19
2023-04-30T00:05:41.353Z,100893.31
2023-04-30T00:08:09.169Z,100893.16
2023-04-30T00:10:37.026Z,100894.34
2023-04-30T00:13:05.001Z,100898.97
2023-04-30T00:15:32.769Z,100894.50
2023-04-30T00:18:00.777Z,100904.56
2023-04-30T00:20:28.706Z,100912.03
2023-04-30T00:22:57.236Z,100909.50
2023-04-30T00:25:25.060Z,100911.19
2023-04-30T00:27:53.077Z,100911.19
2023-04-30T00:30:21.139Z,100920.38
2023-04-30T00:32:49.025Z,100925.31
2023-04-30T00:35:17.393Z,100922.59
2023-04-30T00:37:45.244Z,100929.91
2023-04-30T00:40:13.037Z,100932.81
2023-04-30T00:42:41.159Z,100931.97
2023-04-30T00:45:09.009Z,100923.97
2023-04-30T00:47:37.169Z,100935.88
2023-04-30T00:50:05.011Z,100932.31
2023-04-30T00:52:32.789Z,100936.91
2023-04-30T00:55:00.637Z,100931.47
2023-04-30T00:57:28.435Z,100938.09
2023-04-30T00:59:56.464Z,100936.22
2023-04-30T01:02:24.561Z,100943.56
2023-04-30T01:04:52.482Z,100945.09
2023-04-30T01:07:20.403Z,100947.13
2023-04-30T01:09:48.169Z,100949.00
2023-04-30T01:12:16.057Z,100952.22
2023-04-30T01:14:43.883Z,100951.38
2023-04-30T01:17:11.878Z,100954.09
2023-04-30T01:19:40.194Z,100956.84
2023-04-30T01:22:08.131Z,100955.78
2023-04-30T01:24:36.048Z,100958.53
2023-04-30T01:27:03.809Z,100961.59
2023-04-30T01:29:31.597Z,100968.56
2023-04-30T01:31:59.416Z,100968.06
2023-04-30T01:34:27.209Z,100972.84
2023-04-30T01:36:55.707Z,100972.34
2023-04-30T01:39:23.472Z,100977.94
2023-04-30T01:41:51.223Z,100977.59
2023-04-30T01:44:19.455Z,100981.84
2023-04-30T01:46:47.267Z,100989.53
2023-04-30T01:49:15.165Z,100986.78
2023-04-30T01:51:42.987Z,100989.88
2023-04-30T01:54:10.803Z,100992.59
2023-04-30T01:56:38.726Z,100992.59
2023-04-30T01:59:06.515Z,101000.06
2023-04-30T02:01:34.453Z,101008.25
2023-04-30T02:04:02.341Z,101009.94
2023-04-30T02:06:30.479Z,101011.81
2023-04-30T02:09:02.844Z,101020.13
2023-04-30T02:11:30.741Z,101014.38
2023-04-30T02:13:58.625Z,101021.84
2023-04-30T02:16:26.466Z,101022.53
2023-04-30T02:18:54.405Z,101028.31
2023-04-30T02:21:22.512Z,101021.31
2023-04-30T02:23:50.347Z,101020.66
2023-04-30T02:26:18.221Z,101022.34
2023-04-30T02:28:46.009Z,101019.47
2023-04-30T02:31:13.978Z,101030.53
2023-04-30T02:33:41.992Z,101029.16
2023-04-30T02:36:09.827Z,101033.75
2023-04-30T02:38:37.782Z,101038.19
2023-04-30T02:41:05.682Z,101037.50
2023-04-30T02:43:33.564Z,101036.47
2023-04-30T02:46:01.512Z,101026.75
2023-04-30T02:48:29.333Z,101038.69
2023-04-30T02:50:57.294Z,101039.72
2023-04-30T02:53:25.110Z,101041.56
2023-04-30T02:55:53.145Z,101050.06
2023-04-30T02:58:20.978Z,101046.50
2023-04-30T03:00:48.879Z,101047.00
2023-04-30T03:03:17.125Z,101049.75
2023-04-30T03:05:45.049Z,101053.50
2023-04-30T03:08:12.947Z,101053.69
2023-04-30T03:10:41.035Z,101050.06
2023-04-30T03:13:08.866Z,101055.88
2023-04-30T03:15:36.654Z,101054.16
2023-04-30T03:18:04.565Z,101058.44
2023-04-30T03:20:32.430Z,101060.31
2023-04-30T03:23:00.473Z,101060.47
2023-04-30T03:25:28.272Z,101059.63
2023-04-30T03:27:56.157Z,101054.81
2023-04-30T03:30:24.053Z,101062.81
2023-04-30T03:32:51.922Z,101060.81
2023-04-30T03:35:19.883Z,101072.19
2023-04-30T03:37:47.682Z,101068.78
2023-04-30T03:40:15.621Z,101072.19
2023-04-30T03:42:43.418Z,101069.66
2023-04-30T03:45:11.222Z,101081.41
2023-04-30T03:47:39.200Z,101074.22
2023-04-30T03:50:07.435Z,101078.66
2023-04-30T03:52:36.760Z,101083.22
2023-04-30T03:55:04.530Z,101085.28
2023-04-30T03:57:32.324Z,101089.53
2023-04-30T04:00:00.263Z,101086.13
2023-04-30T04:02:28.111Z,101089.53
2023-04-30T04:04:55.914Z,101087.81
2023-04-30T04:07:23.664Z,101092.41
2023-04-30T04:09:51.511Z,101095.63
2023-04-30T04:12:19.572Z,101101.78
2023-04-30T04:14:47.504Z,101106.50
2023-04-30T04:17:15.299Z,101102.81
2023-04-30T04:19:43.085Z,101109.09
2023-04-30T04:22:11.152Z,101109.94
2023-04-30T04:24:39.373Z,101115.38
2023-04-30T04:27:07.233Z,101117.06
2023-04-30T04:29:35.032Z,101125.22
2023-04-30T04:32:04.749Z,101124.50
2023-04-30T04:34:32.780Z,101126.72
2023-04-30T04:37:01.597Z,101131.47
2023-04-30T04:39:29.414Z,101127.06
2023-04-30T04:41:57.899Z,101127.06
2023-04-30T04:44:26.035Z,101131.31
2023-04-30T04:46:54.385Z,101137.28
2023-04-30T04:49:22.172Z,101137.97
2023-04-30T04:51:50.118Z,101148.88
2023-04-30T04:54:18.093Z,101143.56
2023-04-30T04:56:45.881Z,101151.59
2023-04-30T04:59:13.664Z,101140.69
2023-04-30T05:01:41.780Z,101151.91
2023-04-30T05:04:10.267Z,101153.78
2023-04-30T05:06:38.179Z,101161.97
2023-04-30T05:09:09.089Z,101171.72
2023-04-30T05:11:36.833Z,101168.22
2023-04-30T05:14:04.990Z,101172.19
2023-04-30T05:16:32.851Z,101174.09
2023-04-30T05:19:00.717Z,101174.56
2023-04-30T05:21:29.882Z,101174.69
2023-04-30T05:23:57.779Z,101172.41
2023-04-30T05:26:25.823Z,101180.53
2023-04-30T05:28:53.665Z,101179.16
2023-04-30T05:31:21.595Z,101179.63
2023-04-30T05:33:49.457Z,101182.19
2023-04-30T05:36:17.389Z,101193.66
2023-04-30T05:38:45.217Z,101200.00
2023-04-30T05:41:13.061Z,101202.31
2023-04-30T05:43:41.344Z,101199.66
2023-04-30T05:46:09.223Z,101200.97
2023-04-30T05:48:37.083Z,101196.41
2023-04-30T05:51:05.762Z,101214.56
2023-04-30T05:53:33.561Z,101209.84
2023-04-30T05:56:01.479Z,101199.19
2023-04-30T05:58:29.331Z,101207.72
2023-04-30T06:00:57.269Z,101210.41
2023-04-30T06:03:25.235Z,101204.44
2023-04-30T06:05:52.963Z,101202.19
2023-04-30T06:08:20.782Z,101202.00
2023-04-30T06:10:48.568Z,101201.44
2023-04-30T06:13:16.805Z,101199.19
2023-04-30T06:15:44.653Z,101198.41
2023-04-30T06:18:14.350Z,101200.59
2023-04-30T06:20:42.282Z,101205.50
2023-04-30T06:23:10.279Z,101208.91
2023-04-30T06:25:38.096Z,101203.66
2023-04-30T06:28:06.106Z,101211.78
2023-04-30T06:30:34.446Z,101201.25
2023-04-30T06:33:02.441Z,101206.81
2023-04-30T06:35:30.306Z,101209.25
2023-04-30T06:37:58.243Z,101211.00
2023-04-30T06:40:26.240Z,101205.59
2023-04-30T06:42:54.637Z,101206.03
2023-04-30T06:45:22.530Z,101208.84
2023-04-30T06:47:50.509Z,101213.28
2023-04-30T06:50:18.373Z,101198.47
2023-04-30T06:52:46.290Z,101204.66
2023-04-30T06:55:14.176Z,101213.41
2023-04-30T06:57:42.083Z,101214.09
2023-04-30T07:00:10.035Z,101217.41
2023-04-30T07:02:37.870Z,101222.56
2023-04-30T07:05:05.803Z,101224.63
2023-04-30T07:07:33.801Z,101211.66
2023-04-30T07:10:01.594Z,101222.63
2023-04-30T07:12:29.488Z,101212.25
2023-04-30T07:14:57.452Z,101219.75
2023-04-30T07:17:27.482Z,101213.28
2023-04-30T07:19:56.205Z,101223.22
2023-04-30T07:22:24.335Z,101216.91
2023-04-30T07:24:52.188Z,101227.72
2023-04-30T07:27:20.123Z,101225.28
2023-04-30T07:29:48.587Z,101216.09
2023-04-30T07:32:16.502Z,101225.16
2023-04-30T07:34:44.503Z,101217.97
2023-04-30T07:37:13.791Z,101233.88
2023-04-30T07:39:41.653Z,101230.81
2023-04-30T07:42:09.714Z,101230.97
2023-04-30T07:44:37.633Z,101228.78
2023-04-30T07:47:05.611Z,101228.09
2023-04-30T07:49:33.397Z,101227.06
2023-04-30T07:52:01.592Z,101229.13
2023-04-30T07:54:29.391Z,101225.72
2023-04-30T07:56:57.214Z,101225.03
2023-04-30T07:59:25.620Z,101222.66
2023-04-30T08:01:53.492Z,101226.41
2023-04-30T08:04:21.456Z,101228.63
2023-04-30T08:06:49.402Z,101231.53
2023-04-30T08:09:17.280Z,101226.94
2023-04-30T08:11:45.109Z,101229.81
2023-04-30T08:14:12.924Z,101216.34
2023-04-30T08:16:43.104Z,101220.09
2023-04-30T08:19:10.902Z,101224.72
2023-04-30T08:21:38.765Z,101231.38
2023-04-30T08:24:06.537Z,101230.69
2023-04-30T08:26:34.351Z,101236.31
2023-04-30T08:29:02.168Z,101230.84
2023-04-30T08:31:30.061Z,101235.47
2023-04-30T08:33:57.897Z,101234.59
2023-04-30T08:36:25.734Z,101231.03
2023-04-30T08:38:53.544Z,101231.53
2023-04-30T08:41:21.432Z,101232.56
2023-04-30T08:43:49.271Z,101234.13
2023-04-30T08:46:17.624Z,101232.56
2023-04-30T08:48:45.595Z,101228.47
2023-04-30T08:51:13.476Z,101229.31
2023-04-30T08:53:41.269Z,101230.34
2023-04-30T08:56:09.084Z,101231.41
2023-04-30T08:58:37.717Z,101226.78
2023-04-30T09:01:05.818Z,101225.94
2023-04-30T09:03:33.841Z,101220.47
2023-04-30T09:06:01.757Z,101224.22
2023-04-30T09:08:29.638Z,101224.22
2023-04-30T09:10:57.497Z,101230.50
2023-04-30T09:13:25.257Z,101223.38
2023-04-30T09:15:54.192Z,101225.56
2023-04-30T09:18:21.995Z,101219.22
2023-04-30T09:20:49.854Z,101213.59
2023-04-30T09:23:17.815Z,101222.84
2023-04-30T09:25:45.737Z,101217.53
2023-04-30T09:28:13.672Z,101220.41
2023-04-30T09:30:41.754Z,101221.31
2023-04-30T09:33:11.887Z,101217.53
2023-04-30T09:35:40.519Z,101220.09
2023-04-30T09:38:08.378Z,101219.91
2023-04-30T09:40:36.383Z,101218.03
2023-04-30T09:43:04.798Z,101210.53
2023-04-30T09:45:33.161Z,101215.16
2023-04-30T09:48:12.737Z,101216.50
2023-04-30T09:50:45.194Z,101207.81
2023-04-30T09:53:13.926Z,101208.84
2023-04-30T09:55:41.858Z,101208.50
2023-04-30T09:58:09.705Z,101209.69
2023-04-30T10:00:37.574Z,101211.91
2023-04-30T10:03:05.451Z,101214.13
2023-04-30T10:05:33.605Z,101213.09
2023-04-30T10:08:01.674Z,101208.31
2023-04-30T10:10:29.523Z,101205.44
2023-04-30T10:12:57.367Z,101195.72
2023-04-30T10:15:25.141Z,101206.44
2023-04-30T10:17:52.983Z,101204.22
2023-04-30T10:20:20.916Z,101194.34
2023-04-30T10:22:48.699Z,101199.94
2023-04-30T10:25:16.469Z,101200.84
2023-04-30T10:27:44.300Z,101200.84
2023-04-30T10:30:12.306Z,101196.03
2023-04-30T10:32:40.185Z,101199.44
2023-04-30T10:35:08.097Z,101190.25
2023-04-30T10:37:35.968Z,101194.00
2023-04-30T10:40:05.204Z,101180.00
2023-04-30T10:42:34.466Z,101182.09
2023-04-30T10:45:03.650Z,101176.44
2023-04-30T10:47:32.583Z,101182.09
2023-04-30T10:50:00.564Z,101182.41
2023-04-30T10:52:28.661Z,101179.00
2023-04-30T10:54:56.501Z,101160.59
2023-04-30T10:57:25.189Z,101156.50
2023-04-30T10:59:53.286Z,101169.13
2023-04-30T11:02:21.448Z,101167.41
2023-04-30T11:04:49.321Z,101165.38
2023-04-30T11:07:17.162Z,101163.16
2023-04-30T11:09:45.445Z,101159.94
2023-04-30T11:12:13.300Z,101156.50
2023-04-30T11:14:41.528Z,101150.22
2023-04-30T11:17:09.394Z,101150.38
2023-04-30T11:19:37.228Z,101148.13
2023-04-30T11:22:05.204Z,101147.63
2023-04-30T11:24:33.005Z,101151.75
2023-04-30T11:27:00.829Z,101146.28
2023-04-30T11:29:28.778Z,101145.41
2023-04-30T11:31:56.861Z,101143.72
2023-04-30T11:34:24.716Z,101132.13
2023-04-30T11:36:52.546Z,101134.69
2023-04-30T11:39:20.992Z,101130.25
2023-04-30T11:41:48.873Z,101125.81
2023-04-30T11:44:16.698Z,101132.31
2023-04-30T11:46:44.656Z,101128.56
2023-04-30T11:49:12.555Z,101137.19
2023-04-30T11:51:40.448Z,101128.00
2023-04-30T11:54:08.237Z,101132.59
2023-04-30T11:56:36.440Z,101127.41
2023-04-30T11:59:04.294Z,101121.22
2023-04-30T12:01:32.673Z,101116.19
2023-04-30T12:04:00.644Z,101123.16
2023-04-30T12:06:28.780Z,101116.53
2023-04-30T12:08:56.702Z,101112.41
2023-04-30T12:11:25.531Z,101105.53
2023-04-30T12:13:53.617Z,101105.50
2023-04-30T12:16:21.383Z,101103.50
2023-04-30T12:18:51.979Z,101116.66
2023-04-30T12:21:20.389Z,101120.94
2023-04-30T12:23:48.141Z,101125.38
2023-04-30T12:26:16.201Z,101111.00
2023-04-30T12:28:43.981Z,101114.56
2023-04-30T12:31:11.962Z,101118.53
2023-04-30T12:33:39.758Z,101106.59
2023-04-30T12:36:07.550Z,101106.72
2023-04-30T12:38:35.346Z,101103.38
2023-04-30T12:41:03.286Z,101106.97
2023-04-30T12:43:31.229Z,101100.66
2023-04-30T12:45:59.171Z,101101.94
2023-04-30T12:48:27.420Z,101100.06
2023-04-30T12:50:55.340Z,101104.50
2023-04-30T12:53:23.788Z,101101.19
2023-04-30T12:55:51.681Z,101095.13
2023-04-30T12:58:20.042Z,101098.78
2023-04-30T13:00:48.020Z,101091.50
2023-04-30T13:03:15.906Z,101096.81
2023-04-30T13:05:44.602Z,101091.25
2023-04-30T13:08:12.487Z,101086.50
2023-04-30T13:10:40.354Z,101092.72
2023-04-30T13:13:08.175Z,101086.94
2023-04-30T13:15:35.985Z,101083.91
2023-04-30T13:18:04.208Z,101079.00
2023-04-30T13:20:32.034Z,101076.81
2023-04-30T13:22:59.895Z,101070.38
2023-04-30T13:25:27.717Z,101064.59
2023-04-30T13:27:55.734Z,101059.50
2023-04-30T13:30:23.719Z,101059.19
2023-04-30T13:32:52.636Z,101057.84
2023-04-30T13:35:20.707Z,101055.84
2023-04-30T13:37:52.396Z,101051.59
2023-04-30T13:40:20.185Z,101046.69
2023-04-30T13:42:48.216Z,101043.59
2023-04-30T13:45:16.430Z,101046.00
2023-04-30T13:47:44.243Z,101050.16
2023-04-30T13:50:12.487Z,101044.19
2023-04-30T13:52:40.376Z,101047.44
2023-04-30T13:55:08.381Z,101036.03
2023-04-30T13:57:36.206Z,101045.44
2023-04-30T14:00:05.498Z,101040.50
2023-04-30T14:02:33.451Z,101031.00
2023-04-30T14:05:06.264Z,101034.06
2023-04-30T14:07:35.095Z,101031.53
2023-04-30T14:10:02.946Z,101035.63
2023-04-30T14:12:31.677Z,101040.44
2023-04-30T14:14:59.760Z,101040.59
2023-04-30T14:17:28.323Z,101039.91
2023-04-30T14:19:57.021Z,101038.41
2023-04-30T14:22:25.382Z,101025.94
2023-04-30T14:24:53.136Z,101030.09
2023-04-30T14:27:21.706Z,101024.94
2023-04-30T14:29:49.653Z,101022.41
2023-04-30T14:32:17.798Z,101019.19
2023-04-30T14:34:45.755Z,101023.13
2023-04-30T14:37:13.568Z,101018.69
2023-04-30T14:39:41.377Z,101014.44
2023-04-30T14:42:09.258Z,101010.19
2023-04-30T14:44:37.092Z,101004.91
2023-04-30T14:47:05.053Z,101003.88
2023-04-30T14:49:32.854Z,101003.38
2023-04-30T14:52:00.914Z,101004.38
2023-04-30T14:54:28.811Z,101000.78
2023-04-30T14:56:56.737Z,101007.44
2023-04-30T14:59:24.900Z,101003.03
2023-04-30T15:01:52.733Z,101006.78
2023-04-30T15:04:20.640Z,101009.69
2023-04-30T15:06:48.790Z,101000.63
2023-04-30T15:09:16.895Z,100994.34
2023-04-30T15:11:44.704Z,100996.22
2023-04-30T15:14:12.741Z,100985.47
2023-04-30T15:16:40.933Z,100989.22
2023-04-30T15:19:08.729Z,100974.91
2023-04-30T15:21:36.572Z,100987.69
2023-04-30T15:24:04.497Z,100985.81
2023-04-30T15:26:33.081Z,100981.56
2023-04-30T15:29:02.132Z,100981.56
2023-04-30T15:31:31.060Z,100979.03
2023-04-30T15:33:58.937Z,100972.72
2023-04-30T15:36:26.904Z,100979.88
2023-04-30T15:38:55.084Z,100977.16
2023-04-30T15:41:22.882Z,100986.38
2023-04-30T15:43:50.727Z,100981.06
2023-04-30T15:46:18.627Z,100972.22
2023-04-30T15:48:46.507Z,100971.22
2023-04-30T15:51:14.352Z,100975.13
2023-04-30T15:53:44.073Z,100980.59
2023-04-30T15:56:12.523Z,100973.41
2023-04-30T15:58:40.456Z,100973.41
2023-04-30T16:01:08.933Z,100972.56
2023-04-30T16:03:37.944Z,100970.88
2023-04-30T16:06:06.026Z,100964.56
2023-04-30T16:08:34.315Z,100968.81
2023-04-30T16:11:03.390Z,100967.97
2023-04-30T16:13:31.377Z,100964.56
2023-04-30T16:15:59.176Z,100963.72
2023-04-30T16:18:27.798Z,100965.75
2023-04-30T16:20:55.626Z,100963.22
2023-04-30T16:23:23.655Z,100964.22
2023-04-30T16:25:51.494Z,100958.44
2023-04-30T16:28:19.480Z,100950.44
2023-04-30T16:30:47.295Z,100956.03
2023-04-30T16:33:15.281Z,100952.66
2023-04-30T16:35:43.988Z,100952.66
2023-04-30T16:38:11.839Z,100951.63
2023-04-30T16:40:39.681Z,100954.19
2023-04-30T16:43:08.070Z,100958.13
2023-04-30T16:45:36.119Z,100942.59
2023-04-30T16:48:04.289Z,100947.03
2023-04-30T16:50:32.121Z,100941.75
2023-04-30T16:53:00.104Z,100940.88
2023-04-30T16:55:27.902Z,100945.50
2023-04-30T16:57:55.890Z,100942.78
2023-04-30T17:00:23.690Z,100932.91
2023-04-30T17:02:53.191Z,100938.34
2023-04-30T17:05:21.370Z,100928.28
2023-04-30T17:07:49.403Z,100934.78
2023-04-30T17:10:19.561Z,100930.34
2023-04-30T17:12:47.420Z,100925.72
2023-04-30T17:15:15.367Z,100932.22
2023-04-30T17:17:43.393Z,100925.91
2023-04-30T17:20:11.260Z,100924.19
2023-04-30T17:22:39.254Z,100925.06
2023-04-30T17:25:07.194Z,100926.09
2023-04-30T17:27:34.987Z,100924.41
2023-04-30T17:30:04.420Z,100927.97
2023-04-30T17:32:32.341Z,100927.13
2023-04-30T17:35:01.608Z,100928.81
2023-04-30T17:37:29.465Z,100929.00
2023-04-30T17:39:57.721Z,100927.28
2023-04-30T17:42:25.720Z,100919.09
2023-04-30T17:44:53.482Z,100931.88
2023-04-30T17:47:22.994Z,100924.75
2023-04-30T17:49:50.883Z,100928.47
2023-04-30T17:52:18.704Z,100927.47
2023-04-30T17:54:46.501Z,100930.19
2023-04-30T17:57:14.321Z,100925.75
2023-04-30T17:59:42.132Z,100926.63
2023-04-30T18:02:09.994Z,100930.38
2023-04-30T18:04:37.896Z,100935.13
2023-04-30T18:07:05.709Z,100928.84
2023-04-30T18:09:33.484Z,100928.69
2023-04-30T18:12:01.303Z,100931.41
2023-04-30T18:14:29.131Z,100928.84
2023-04-30T18:16:56.986Z,100937.00
2023-04-30T18:19:25.299Z,100931.75
2023-04-30T18:21:55.862Z,100932.75
2023-04-30T18:24:27.578Z,100932.59
2023-04-30T18:26:55.884Z,100937.22
2023-04-30T18:29:23.679Z,100936.34
2023-04-30T18:31:51.613Z,100929.19
2023-04-30T18:34:19.575Z,100926.47
2023-04-30T18:36:47.673Z,100923.75
2023-04-30T18:39:15.489Z,100922.06
2023-04-30T18:41:43.538Z,100925.09
2023-04-30T18:44:11.471Z,100924.91
2023-04-30T18:46:39.460Z,100928.69
2023-04-30T18:49:07.329Z,100930.03
2023-04-30T18:51:35.209Z,100926.97
2023-04-30T18:54:03.021Z,100934.47
2023-04-30T18:56:31.049Z,100935.50
2023-04-30T18:58:58.916Z,100938.56
2023-04-30T19:01:27.479Z,100941.47
2023-04-30T19:03:55.452Z,100941.47
2023-04-30T19:06:23.404Z,100942.66
2023-04-30T19:08:51.262Z,100938.41
2023-04-30T19:11:19.126Z,100939.28
2023-04-30T19:13:47.032Z,100939.09
2023-04-30T19:16:14.778Z,100937.41
2023-04-30T19:18:42.568Z,100943.00
2023-04-30T19:21:12.956Z,100945.72
2023-04-30T19:23:41.337Z,100945.25
2023-04-30T19:26:09.299Z,100943.38
2023-04-30T19:28:37.083Z,100942.69
2023-04-30T19:31:06.159Z,100946.44
2023-04-30T19:33:38.373Z,100944.72
2023-04-30T19:36:06.187Z,100943.22
2023-04-30T19:38:33.961Z,100953.78
2023-04-30T19:41:01.811Z,100941.34
2023-04-30T19:43:29.597Z,100950.88
2023-04-30T19:45:57.591Z,100938.28
2023-04-30T19:48:25.598Z,100941.16
2023-04-30T19:50:53.850Z,100942.88
2023-04-30T19:53:22.149Z,100937.59
2023-04-30T19:55:50.171Z,100951.38
2023-04-30T19:58:17.989Z,100947.81
2023-04-30T20:00:46.063Z,100949.53
2023-04-30T20:03:16.435Z,100948.00
2023-04-30T20:05:44.870Z,100948.00
2023-04-30T20:08:12.668Z,100951.72
2023-04-30T20:10:41.575Z,100943.56
2023-04-30T20:13:09.372Z,100947.31
2023-04-30T20:15:37.246Z,100946.28
2023-04-30T20:18:05.865Z,100941.53
2023-04-30T20:20:33.748Z,100934.03
2023-04-30T20:23:01.605Z,100935.22
2023-04-30T20:25:29.575Z,100934.53
2023-04-30T20:27:57.507Z,100936.06
2023-04-30T20:30:25.305Z,100937.25
2023-04-30T20:32:53.219Z,100947.31
2023-04-30T20:35:21.491Z,100933.81
2023-04-30T20:37:54.562Z,100936.75
2023-04-30T20:40:22.394Z,100939.28
2023-04-30T20:42:51.845Z,100938.78
2023-04-30T20:45:21.062Z,100940.81
2023-04-30T20:47:48.942Z,100938.09
2023-04-30T20:50:16.766Z,100936.56
2023-04-30T20:52:47.818Z,100931.97
2023-04-30T20:55:15.588Z,100935.72
2023-04-30T20:57:43.383Z,100935.72
2023-04-30T21:00:11.961Z,100934.69
2023-04-30T21:02:39.942Z,100932.31
2023-04-30T21:05:07.855Z,100921.56
2023-04-30T21:07:35.694Z,100926.16
2023-04-30T21:10:05.132Z,100916.31
2023-04-30T21:12:36.059Z,100918.00
2023-04-30T21:15:04.531Z,100918.00
2023-04-30T21:17:32.385Z,100912.91
2023-04-30T21:20:00.962Z,100916.66
2023-04-30T21:22:28.894Z,100906.59
2023-04-30T21:24:57.151Z,100913.94
2023-04-30T21:27:25.048Z,100907.44
2023-04-30T21:29:52.955Z,100904.56
2023-04-30T21:32:21.080Z,100912.91
2023-04-30T21:34:48.923Z,100910.69
2023-04-30T21:37:17.456Z,100907.81
2023-04-30T21:39:45.405Z,100914.09
2023-04-30T21:42:13.346Z,100899.47
2023-04-30T21:44:41.119Z,100900.31
2023-04-30T21:47:09.557Z,100899.28
2023-04-30T21:49:37.396Z,100899.28
2023-04-30T21:52:08.241Z,100901.50
2023-04-30T21:54:36.074Z,100900.31
2023-04-30T21:57:03.855Z,100897.06
2023-04-30T21:59:31.617Z,100895.53
2023-04-30T22:02:03.074Z,100894.53
2023-04-30T22:04:33.912Z,100894.69
2023-04-30T22:07:02.108Z,100900.34
2023-04-30T22:09:29.895Z,100896.72
2023-04-30T22:11:57.723Z,100912.56
2023-04-30T22:14:25.583Z,100911.22
2023-04-30T22:16:53.404Z,100912.56
2023-04-30T22:19:21.216Z,100900.84
2023-04-30T22:21:49.055Z,100906.97
2023-04-30T22:24:16.850Z,100904.41
2023-04-30T22:26:44.785Z,100907.81
2023-04-30T22:29:12.630Z,100910.88
2023-04-30T22:31:40.470Z,100901.00
2023-04-30T22:34:08.304Z,100907.13
2023-04-30T22:36:36.143Z,100898.28
2023-04-30T22:39:04.027Z,100904.41
2023-04-30T22:41:34.678Z,100900.31
2023-04-30T22:44:02.974Z,100897.25
2023-04-30T22:46:31.753Z,100905.75
2023-04-30T22:48:59.541Z,100909.84
2023-04-30T22:51:27.449Z,100893.16
2023-04-30T22:53:55.478Z,100891.81
2023-04-30T22:56:23.369Z,100897.59
2023-04-30T22:58:51.232Z,100892.69
2023-04-30T23:01:20.252Z,100905.41
2023-04-30T23:03:48.112Z,100905.75
2023-04-30T23:06:15.902Z,100903.91
2023-04-30T23:08:44.400Z,100902.19
2023-04-30T23:11:12.288Z,100904.75
2023-04-30T23:13:40.748Z,100901.50
2023-04-30T23:16:11.717Z,100897.59
2023-04-30T23:18:39.548Z,100907.47
2023-04-30T23:21:07.725Z,100902.88
2023-04-30T23:23:35.562Z,100897.09
2023-04-30T23:26:04.055Z,100899.13
2023-04-30T23:28:31.913Z,100907.13
2023-04-30T23:30:59.724Z,100903.72
2023-04-30T23:33:27.581Z,100900.66
2023-04-30T23:35:55.337Z,100898.63
2023-04-30T23:38:23.247Z,100900.84
2023-04-30T23:40:51.093Z,100892.84
2023-04-30T23:43:18.925Z,100891.81
2023-04-30T23:45:46.727Z,100895.22
2023-04-30T23:48:14.563Z,100896.06
2023-04-30T23:50:42.424Z,100889.44
2023-04-30T23:53:10.204Z,100890.13
2023-04-30T23:55:38.146Z,100894.88
2023-04-30T23:58:06.303Z,100888.59
